createdAt,value
2024-03-16T00:04:33.697Z,99784.34
2024-03-16T00:09:35.434Z,99782.84
2024-03-16T00:14:37.165Z,99779.81
2024-03-16T00:19:38.835Z,99786.91
2024-03-16T00:24:40.454Z,99788.25
2024-03-16T00:29:42.078Z,99785.00
2024-03-16T00:34:44.117Z,99795.13
2024-03-16T00:39:45.856Z,99796.31
2024-03-16T00:44:47.429Z,99792.28
2024-03-16T00:49:49.061Z,99790.59
2024-03-16T00:54:50.651Z,99789.56
2024-03-16T00:59:52.483Z,99784.31
2024-03-16T01:04:54.144Z,99782.13
2024-03-16T01:09:56.780Z,99779.75
2024-03-16T01:14:58.582Z,99786.34
2024-03-16T01:20:00.643Z,99774.34
2024-03-16T01:25:02.949Z,99767.41
2024-03-16T01:30:10.517Z,99772.00
2024-03-16T01:35:31.775Z,99767.78
2024-03-16T01:40:33.594Z,99759.03
2024-03-16T01:45:35.266Z,99759.19
2024-03-16T01:50:40.763Z,99745.19
2024-03-16T01:55:42.379Z,99757.00
2024-03-16T02:00:48.425Z,99753.09
2024-03-16T02:05:50.313Z,99759.84
2024-03-16T02:10:51.974Z,99753.56
2024-03-16T02:15:53.698Z,99757.22
2024-03-16T02:20:55.474Z,99763.09
2024-03-16T02:25:57.066Z,99755.59
2024-03-16T02:30:58.725Z,99749.19
2024-03-16T02:36:00.345Z,99751.31
2024-03-16T02:41:03.213Z,99747.22
2024-03-16T02:46:06.573Z,99759.75
2024-03-16T02:51:08.455Z,99758.22
2024-03-16T02:56:10.101Z,99761.25
2024-03-16T03:01:11.757Z,99765.09
2024-03-16T03:06:13.889Z,99772.44
2024-03-16T03:11:15.760Z,99775.41
2024-03-16T03:16:21.043Z,99771.31
2024-03-16T03:21:22.634Z,99775.63
2024-03-16T03:26:24.966Z,99775.38
2024-03-16T03:31:26.886Z,99770.06
2024-03-16T03:36:30.053Z,99784.47
2024-03-16T03:41:31.641Z,99786.47
2024-03-16T03:46:52.071Z,99782.63
2024-03-16T03:51:55.290Z,99796.38
2024-03-16T03:56:57.213Z,99790.38
2024-03-16T04:01:58.876Z,99789.78
2024-03-16T04:07:00.700Z,99793.72
2024-03-16T04:12:02.700Z,99800.88
2024-03-16T04:17:04.381Z,99800.09
2024-03-16T04:22:06.393Z,99794.56
2024-03-16T04:27:08.034Z,99800.38
2024-03-16T04:32:10.919Z,99800.72
2024-03-16T04:37:12.595Z,99813.66
2024-03-16T04:42:14.747Z,99809.00
2024-03-16T04:47:16.296Z,99810.75
2024-03-16T04:52:18.001Z,99810.84
2024-03-16T04:57:19.817Z,99815.97
2024-03-16T05:02:21.548Z,99814.38
2024-03-16T05:07:23.273Z,99820.56
2024-03-16T05:12:26.135Z,99813.50
2024-03-16T05:17:27.752Z,99824.66
2024-03-16T05:22:31.005Z,99830.16
2024-03-16T05:27:32.658Z,99843.63
2024-03-16T05:32:34.342Z,99843.72
2024-03-16T05:37:36.864Z,99848.09
2024-03-16T05:42:39.483Z,99852.69
2024-03-16T05:47:41.115Z,99854.94
2024-03-16T05:52:42.684Z,99855.63
2024-03-16T05:57:44.855Z,99860.06
2024-03-16T06:02:46.576Z,99862.88
2024-03-16T06:07:48.699Z,99862.63
2024-03-16T06:12:51.173Z,99870.41
2024-03-16T06:17:53.373Z,99884.75
2024-03-16T06:22:56.722Z,99886.44
2024-03-16T06:28:08.056Z,99891.31
2024-03-16T06:33:10.449Z,99889.28
2024-03-16T06:38:12.160Z,99899.97
2024-03-16T06:43:13.734Z,99900.53
2024-03-16T06:48:16.586Z,99904.72
2024-03-16T06:53:18.149Z,99923.81
2024-03-16T06:58:19.896Z,99911.69
2024-03-16T07:03:21.572Z,99917.63
2024-03-16T07:08:23.149Z,99930.78
2024-03-16T07:13:25.785Z,99926.72
2024-03-16T07:18:28.076Z,99942.13
2024-03-16T07:23:29.775Z,99946.28
2024-03-16T07:28:34.105Z,99949.16
2024-03-16T07:33:37.103Z,99942.03
2024-03-16T07:38:39.518Z,99945.06
2024-03-16T07:43:41.522Z,99948.97
2024-03-16T07:48:43.174Z,99945.78
2024-03-16T07:53:44.760Z,99955.94
2024-03-16T07:58:46.365Z,99955.41
2024-03-16T08:03:47.952Z,99963.50
2024-03-16T08:08:51.044Z,99967.56
2024-03-16T08:13:52.672Z,99975.16
2024-03-16T08:18:54.257Z,99979.72
2024-03-16T08:23:55.845Z,99981.22
2024-03-16T08:28:57.475Z,99985.28
2024-03-16T08:33:59.718Z,99981.16
2024-03-16T08:39:04.157Z,99981.50
2024-03-16T08:44:05.931Z,99977.97
2024-03-16T08:49:08.669Z,99984.75
2024-03-16T08:54:11.274Z,99976.66
2024-03-16T08:59:13.320Z,99976.94
2024-03-16T09:04:16.425Z,99980.31
2024-03-16T09:09:18.152Z,99979.31
2024-03-16T09:14:19.780Z,99974.75
2024-03-16T09:19:21.679Z,99965.53
2024-03-16T09:24:23.615Z,99968.03
2024-03-16T09:29:25.226Z,99967.00
2024-03-16T09:34:26.843Z,99968.88
2024-03-16T09:39:28.504Z,99970.06
